Rye, Texas
Current Conditions -  °F | °C
As of 12:35 AM on Saturday 20 Dec 2014 (Local Time) from K6R3 Reporting Station
Overcast Overcast  
Wind Chill: 50°   Ceiling: 600
Heat Index: 50°   Visibility: 7mi
Dew Point: 50°   Wind: 6mph
Humidity: 97%   Direction: 20°NNE
Pressure: 30.15"   Gusts: NA
Location:  30.45°N, 94.77°W
Report Text: K6R3 200635Z AUTO 02005KT 7SM OVC006 10/10 A3015 RMK AO2 T01020098
Loading
Personal Weather Stations






























Interactive Weather Map New forecast layout! Learn more

10-Day Weather Forecast

Advertisements
Track Severe Weather on mobile